Time;durP1;ratioP1;P1;durP2;ratioP2;P2;SDS_P1;SDS_P2;PMS_P1;PMS_P2;Temp;Humidity;BMP_temperature;BMP_pressure;BME280_temperature;BME280_humidity;BME280_pressure;Samples;Min_cycle;Max_cycle;Signal;HPM_P1;HPM_P2
2022/01/27 00:03:12;;;;;;;;;35.75;32.25;;;;;19.11;39.95;102470.03;5080499;28;45254;-75
2022/01/27 00:05:39;;;;;;;;;34.25;31.50;;;;;19.10;39.99;102476.19;5079229;28;45394;-76
2022/01/27 00:08:15;;;;;;;;;40.00;32.00;;;;;19.10;40.53;102473.53;5080331;27;45178;-76
2022/01/27 00:13:18;;;;;;;;;40.25;31.50;;;;;19.09;40.02;102469.13;5078981;28;45381;-75
2022/01/27 00:15:47;;;;;;;;;37.75;32.50;;;;;19.09;40.22;102462.97;5079093;27;45381;-75
2022/01/27 00:18:16;;;;;;;;;36.75;30.25;;;;;19.10;39.73;102472.66;5074775;28;45263;-76
2022/01/27 00:20:42;;;;;;;;;41.75;32.50;;;;;19.08;39.99;102464.72;5062376;28;45332;-76
2022/01/27 00:23:07;;;;;;;;;39.50;32.00;;;;;19.07;39.97;102459.44;5061468;28;47715;-76
2022/01/27 00:25:33;;;;;;;;;36.25;30.75;;;;;19.07;40.47;102459.44;5078775;28;45453;-76
2022/01/27 00:28:01;;;;;;;;;35.50;30.25;;;;;19.07;40.82;102455.03;5043063;28;45898;-76
2022/01/27 00:30:26;;;;;;;;;34.50;31.50;;;;;19.10;40.84;102451.50;5058739;28;45558;-76
2022/01/27 00:32:52;;;;;;;;;31.50;30.25;;;;;19.14;40.64;102455.91;5070923;28;54241;-76
2022/01/27 00:35:17;;;;;;;;;38.00;31.25;;;;;19.20;40.79;102454.16;5041611;28;45915;-76
2022/01/27 00:37:42;;;;;;;;;34.50;31.50;;;;;19.23;40.24;102439.16;5078302;28;45241;-76
2022/01/27 00:40:11;;;;;;;;;36.75;29.50;;;;;19.24;40.07;102441.81;5061210;28;53859;-76
2022/01/27 00:42:40;;;;;;;;;33.00;29.75;;;;;19.22;40.29;102442.69;5062127;28;45365;-75
2022/01/27 00:45:05;;;;;;;;;40.75;32.50;;;;;19.24;40.35;102435.63;5078746;28;45754;-76
2022/01/27 00:47:31;;;;;;;;;29.00;28.75;;;;;19.25;40.20;102435.63;5043004;28;45202;-76
2022/01/27 00:49:56;;;;;;;;;36.00;30.00;;;;;19.26;40.32;102436.50;5080011;27;45499;-76
2022/01/27 00:52:33;;;;;;;;;33.50;29.75;;;;;19.28;40.79;102426.78;5078109;28;46333;-75
2022/01/27 00:54:58;;;;;;;;;35.75;30.75;;;;;19.33;40.70;102423.28;5064575;27;45744;-75
2022/01/27 01:00:09;;;;;;;;;30.25;25.50;;;;;19.34;40.02;102414.44;5079725;28;45395;-76
2022/01/27 01:02:56;;;;;;;;;36.50;31.00;;;;;19.31;40.11;102414.47;5082820;27;45529;-76
2022/01/27 01:05:42;;;;;;;;;45.00;33.75;;;;;19.34;40.11;102418.88;5082072;28;45428;-76
2022/01/27 01:16:05;;;;;;;;;41.00;33.25;;;;;19.29;39.99;102402.13;5072022;28;45353;-75
2022/01/27 01:18:46;;;;;;;;;33.00;29.00;;;;;19.29;40.64;102416.22;5064839;28;45299;-75
2022/01/27 01:30:22;;;;;;;;;38.00;31.00;;;;;19.25;39.91;102395.03;5082061;28;45460;-75
2022/01/27 01:32:20;;;;;;;;;41.50;32.00;;;;;19.19;40.00;102398.56;5060635;28;45351;-75
2022/01/27 01:34:48;;;;;;;;;45.50;33.25;;;;;19.13;40.01;102394.16;5065878;27;47631;-75
2022/01/27 01:37:17;;;;;;;;;36.25;31.50;;;;;19.10;40.32;102396.78;5060948;28;45399;-75
2022/01/27 01:39:43;;;;;;;;;43.50;32.25;;;;;19.12;39.82;102392.41;5062030;27;45343;-75
2022/01/27 01:42:10;;;;;;;;;40.00;33.00;;;;;19.12;39.87;102402.13;5051531;28;45266;-75
2022/01/27 01:44:35;;;;;;;;;38.75;33.00;;;;;19.13;40.27;102390.63;5061811;28;46017;-76
2022/01/27 01:47:01;;;;;;;;;38.50;32.25;;;;;19.15;40.48;102394.16;5047474;28;46116;-76
2022/01/27 01:49:27;;;;;;;;;43.75;35.50;;;;;19.16;40.49;102385.34;5064146;28;45417;-76
2022/01/27 01:51:56;;;;;;;;;39.50;30.75;;;;;19.19;41.05;102391.50;5043995;28;45604;-76
2022/01/27 01:54:21;;;;;;;;;39.75;34.00;;;;;19.23;40.69;102395.03;5061481;28;48388;-76
2022/01/27 01:56:47;;;;;;;;;42.25;32.25;;;;;19.24;40.15;102390.63;5063935;28;45213;-75
2022/01/27 01:59:12;;;;;;;;;36.00;32.50;;;;;19.24;40.25;102383.56;5064109;28;45684;-76
2022/01/27 02:01:38;;;;;;;;;39.00;30.75;;;;;19.29;40.94;102376.53;5080555;28;58831;-75
2022/01/27 02:04:07;;;;;;;;;43.00;33.50;;;;;19.35;40.45;102365.03;5043835;28;47424;-75
2022/01/27 02:06:46;;;;;;;;;40.00;34.25;;;;;19.37;40.46;102358.88;5055484;28;45355;-75
2022/01/27 02:09:30;;;;;;;;;36.50;32.00;;;;;19.35;40.61;102357.09;5065968;28;45294;-75
2022/01/27 02:20:08;;;;;;;;;39.50;34.00;;;;;19.29;40.08;102357.13;5066481;28;45429;-76
2022/01/27 02:22:34;;;;;;;;;43.75;34.50;;;;;19.30;40.16;102351.81;5060072;28;45256;-76
2022/01/27 02:24:59;;;;;;;;;40.25;34.75;;;;;19.29;40.44;102355.34;5075937;28;45424;-76
2022/01/27 02:27:25;;;;;;;;;47.75;37.00;;;;;19.31;39.72;102347.41;5063670;28;45401;-75
2022/01/27 02:29:50;;;;;;;;;40.75;34.75;;;;;19.29;39.81;102347.41;5081800;28;45550;-75
2022/01/27 02:32:16;;;;;;;;;42.75;35.25;;;;;19.25;39.77;102344.75;5060566;28;45231;-75
2022/01/27 02:34:42;;;;;;;;;45.50;35.00;;;;;19.22;40.14;102342.13;5062029;28;46288;-75
2022/01/27 02:37:08;;;;;;;;;39.25;29.75;;;;;19.14;39.98;102345.63;5063448;28;45343;-76
2022/01/27 02:39:33;;;;;;;;;44.50;34.75;;;;;19.14;39.47;102340.34;5061969;28;45322;-76
2022/01/27 02:42:25;;;;;;;;;40.75;33.00;;;;;19.12;39.91;102342.13;5080348;28;45482;-76
2022/01/27 02:45:15;;;;;;;;;39.75;33.25;;;;;19.15;40.05;102338.59;5049266;28;47327;-75
2022/01/27 02:47:42;;;;;;;;;39.25;32.00;;;;;19.15;39.63;102336.81;5079823;28;45621;-76
2022/01/27 02:50:07;;;;;;;;;47.25;35.25;;;;;19.16;39.65;102332.41;5060207;28;45490;-75
2022/01/27 02:52:33;;;;;;;;;42.50;32.50;;;;;19.12;39.56;102328.88;5061183;28;45828;-76
2022/01/27 02:54:58;;;;;;;;;42.75;35.00;;;;;19.11;39.72;102318.28;5079868;28;47160;-75
2022/01/27 02:57:24;;;;;;;;;48.50;36.50;;;;;19.12;39.79;102323.59;5060286;27;45355;-76
2022/01/27 02:59:50;;;;;;;;;44.25;36.00;;;;;19.11;39.85;102328.84;5043075;28;45373;-76
2022/01/27 03:02:16;;;;;;;;;45.25;34.25;;;;;19.09;39.72;102326.22;5058995;28;45621;-76
2022/01/27 03:04:41;;;;;;;;;37.50;33.25;;;;;19.08;39.86;102328.88;5062993;27;46925;-75
2022/01/27 03:07:07;;;;;;;;;40.25;34.00;;;;;19.08;39.33;102328.88;5080393;27;59569;-75
2022/01/27 03:09:33;;;;;;;;;40.00;32.25;;;;;19.09;39.71;102326.22;5079965;28;45305;-75
2022/01/27 03:12:07;;;;;;;;;42.00;32.25;;;;;19.08;39.86;102319.16;5063004;28;45542;-76
2022/01/27 03:14:32;;;;;;;;;43.75;36.25;;;;;19.09;39.50;102323.56;5063024;28;47267;-75
2022/01/27 03:17:01;;;;;;;;;40.00;32.75;;;;;19.08;40.23;102313.88;5062491;28;48107;-77
2022/01/27 03:19:27;;;;;;;;;43.00;31.50;;;;;19.15;40.89;102314.75;5046819;28;45594;-77
2022/01/27 03:21:53;;;;;;;;;42.75;33.75;;;;;19.23;40.75;102313.00;5045672;28;45420;-77
2022/01/27 03:24:19;;;;;;;;;38.25;33.00;;;;;19.30;40.72;102314.75;5042488;28;47930;-77
2022/01/27 03:26:45;;;;;;;;;34.00;31.75;;;;;19.40;40.86;102321.78;5059949;28;45520;-77
2022/01/27 03:29:11;;;;;;;;;33.00;30.00;;;;;19.45;40.78;102311.16;5042924;28;45383;-77
2022/01/27 03:31:36;;;;;;;;;38.50;32.00;;;;;19.52;40.66;102312.03;5078373;28;45335;-77
2022/01/27 03:34:02;;;;;;;;;31.75;29.50;;;;;19.57;40.66;102297.06;5079419;28;48314;-77
2022/01/27 03:36:27;;;;;;;;;32.50;27.00;;;;;19.62;40.82;102308.50;5080557;27;45338;-77
2022/01/27 03:38:53;;;;;;;;;34.00;29.25;;;;;19.66;40.65;102316.44;5079644;28;45363;-77
2022/01/27 03:41:20;;;;;;;;;34.25;30.50;;;;;19.71;40.92;102312.00;5062208;28;45430;-77
2022/01/27 03:43:47;;;;;;;;;32.50;30.50;;;;;19.73;40.84;102310.25;5062633;28;47101;-77
2022/01/27 03:46:12;;;;;;;;;31.00;29.50;;;;;19.76;40.59;102304.06;5080513;27;45262;-77
2022/01/27 03:48:38;;;;;;;;;26.00;23.50;;;;;19.78;40.55;102304.91;5079437;28;45500;-77
2022/01/27 03:51:03;;;;;;;;;29.50;26.00;;;;;19.83;40.74;102311.09;5044894;28;60438;-77
2022/01/27 03:53:29;;;;;;;;;29.75;26.00;;;;;19.85;40.83;102309.31;5058802;28;45572;-77
2022/01/27 03:55:54;;;;;;;;;28.25;24.50;;;;;19.87;41.03;102311.94;5058824;28;45573;-77
2022/01/27 03:58:20;;;;;;;;;32.00;26.00;;;;;19.89;40.75;102308.41;5073530;28;45457;-77
2022/01/27 04:00:45;;;;;;;;;40.00;30.00;;;;;19.91;40.74;102303.13;5080396;27;45557;-77
2022/01/27 04:03:13;;;;;;;;;31.75;26.75;;;;;19.93;40.71;102304.88;5079045;28;48297;-77
2022/01/27 04:05:42;;;;;;;;;32.25;29.75;;;;;19.95;40.76;102310.16;5042725;28;45323;-77
2022/01/27 04:08:09;;;;;;;;;27.25;24.50;;;;;19.96;40.93;102304.84;5037182;28;45538;-77
2022/01/27 04:10:34;;;;;;;;;28.75;26.00;;;;;19.98;40.77;102310.13;5058519;28;45470;-78
2022/01/27 04:13:01;;;;;;;;;34.00;25.50;;;;;19.99;40.98;102314.56;5058713;28;48290;-78
2022/01/27 04:15:26;;;;;;;;;31.25;25.00;;;;;19.99;40.87;102306.63;5056092;28;45217;-77
2022/01/27 04:17:51;;;;;;;;;30.25;27.50;;;;;19.99;40.66;102302.19;5068630;28;56690;-77
2022/01/27 04:20:17;;;;;;;;;28.50;22.75;;;;;20.03;40.67;102303.03;5062084;28;45533;-77
2022/01/27 04:22:42;;;;;;;;;33.75;27.25;;;;;20.03;41.01;102303.03;5061668;28;46970;-77
2022/01/27 04:25:08;;;;;;;;;33.75;30.50;;;;;20.04;40.59;102296.84;5044895;28;45332;-78
2022/01/27 04:27:36;;;;;;;;;32.00;23.25;;;;;20.04;40.83;102299.50;5062115;27;45255;-77
2022/01/27 04:30:04;;;;;;;;;22.25;17.75;;;;;20.05;40.76;102294.19;5058528;28;45381;-77
2022/01/27 04:32:37;;;;;;;;;33.25;26.25;;;;;20.05;40.69;102296.84;5041827;28;48157;-77
2022/01/27 04:35:05;;;;;;;;;29.75;25.50;;;;;20.08;40.98;102303.03;5077871;28;45519;-77
2022/01/27 04:37:36;;;;;;;;;26.75;24.50;;;;;20.09;40.98;102299.50;5045920;28;45425;-77
2022/01/27 04:40:08;;;;;;;;;26.00;23.00;;;;;20.11;40.78;102300.38;5081380;28;45406;-77
2022/01/27 04:42:51;;;;;;;;;36.75;25.00;;;;;20.12;40.95;102304.78;5083515;27;45531;-77
2022/01/27 04:45:19;;;;;;;;;25.00;21.00;;;;;20.15;40.89;102320.66;5083463;27;45181;-77
2022/01/27 04:47:48;;;;;;;;;30.25;27.25;;;;;20.15;40.64;102316.22;5083484;27;45592;-77
2022/01/27 04:50:14;;;;;;;;;26.75;24.75;;;;;20.17;40.89;102313.59;5082787;27;45387;-77
2022/01/27 04:52:44;;;;;;;;;27.50;24.50;;;;;20.14;40.98;102302.97;5081258;28;61794;-77
2022/01/27 04:55:12;;;;;;;;;27.00;19.25;;;;;20.18;40.79;102302.09;5081874;28;45508;-77
2022/01/27 04:57:40;;;;;;;;;27.50;23.25;;;;;20.18;41.10;102296.78;5058312;28;45293;-77
2022/01/27 05:00:07;;;;;;;;;30.00;26.00;;;;;20.17;41.16;102295.91;5073771;28;45546;-77
2022/01/27 05:04:58;;;;;;;;;22.50;21.25;;;;;20.18;41.22;102295.03;5083307;27;45263;-77
2022/01/27 05:07:23;;;;;;;;;24.75;22.75;;;;;20.22;41.05;102295.88;5082996;27;45755;-77
2022/01/27 05:09:58;;;;;;;;;23.00;19.75;;;;;20.21;41.15;102287.03;5082531;27;59932;-77
2022/01/27 05:12:43;;;;;;;;;27.50;20.75;;;;;20.24;41.23;102288.78;5082940;27;45289;-77
2022/01/27 05:15:09;;;;;;;;;27.25;22.75;;;;;20.26;41.24;102294.97;5063573;28;45513;-77
2022/01/27 05:17:34;;;;;;;;;22.25;20.25;;;;;20.25;41.34;102287.91;5081548;28;45475;-77
2022/01/27 05:20:00;;;;;;;;;27.25;24.00;;;;;20.29;41.30;102287.00;5081502;28;45193;-77
2022/01/27 05:22:25;;;;;;;;;29.75;21.75;;;;;20.29;41.36;102289.66;5082711;27;45464;-77
2022/01/27 05:24:51;;;;;;;;;29.25;22.00;;;;;20.30;41.07;102292.28;5082795;27;45419;-77
2022/01/27 05:27:16;;;;;;;;;25.50;18.75;;;;;20.31;41.03;102286.09;5082895;27;49376;-77
2022/01/27 05:29:42;;;;;;;;;25.50;23.75;;;;;20.32;41.24;102285.19;5082199;27;54055;-77
2022/01/27 05:32:07;;;;;;;;;23.25;23.00;;;;;20.31;40.92;102288.72;5081512;27;47078;-77
2022/01/27 05:34:33;;;;;;;;;20.00;18.75;;;;;20.35;41.13;102286.09;5082484;28;45283;-77
2022/01/27 05:36:58;;;;;;;;;22.00;20.00;;;;;20.36;41.35;102291.38;5082123;27;55355;-77
2022/01/27 05:39:24;;;;;;;;;26.25;19.25;;;;;20.36;41.12;102290.50;5081937;27;63955;-77
2022/01/27 05:41:49;;;;;;;;;23.00;19.25;;;;;20.37;41.14;102281.66;5064454;28;54040;-77
2022/01/27 05:44:14;;;;;;;;;23.00;20.00;;;;;20.39;41.24;102285.16;5067427;27;56065;-77
2022/01/27 05:46:40;;;;;;;;;20.50;19.75;;;;;20.40;41.03;102286.91;5059565;28;45422;-76
2022/01/27 05:49:05;;;;;;;;;25.50;23.75;;;;;20.41;41.02;102283.38;5043437;28;60063;-77
2022/01/27 05:51:31;;;;;;;;;25.75;20.50;;;;;20.40;41.15;102277.19;5043726;28;56359;-77
2022/01/27 05:53:56;;;;;;;;;21.75;19.00;;;;;20.42;41.24;102280.75;5043755;28;46558;-77
2022/01/27 05:56:21;;;;;;;;;20.50;18.75;;;;;20.42;41.13;102275.44;5027029;28;51994;-77
2022/01/27 05:58:47;;;;;;;;;27.50;22.75;;;;;20.44;40.96;102272.78;5060740;28;45538;-80
2022/01/27 06:01:13;;;;;;;;;19.25;18.50;;;;;20.46;41.68;102277.19;5064357;28;47680;-75
2022/01/27 06:03:38;;;;;;;;;26.75;22.50;;;;;20.52;42.31;102269.19;5061488;28;45281;-76
2022/01/27 06:06:03;;;;;;;;;46.75;37.25;;;;;20.61;42.47;102276.19;5080689;28;52476;-78
2022/01/27 06:08:30;;;;;;;;;44.75;32.25;;;;;20.74;42.65;102275.19;5080592;28;45487;-78
2022/01/27 06:10:56;;;;;;;;;36.50;30.00;;;;;20.87;42.87;102281.28;5082159;27;45354;-90
2022/01/27 06:13:22;;;;;;;;;69.00;52.75;;;;;21.05;42.28;102282.91;5063678;27;45562;-86
2022/01/27 06:15:47;;;;;;;;;71.25;56.50;;;;;21.14;42.74;102282.81;5060751;28;45444;-81
2022/01/27 06:18:13;;;;;;;;;70.75;55.25;;;;;21.36;42.68;102287.00;5046609;28;45499;-74
2022/01/27 06:20:39;;;;;;;;;59.50;47.50;;;;;21.50;42.95;102283.34;5063930;28;46215;-80
2022/01/27 06:23:05;;;;;;;;;58.50;45.75;;;;;21.62;42.11;102294.69;5048967;28;45661;-78
2022/01/27 06:25:30;;;;;;;;;59.00;47.25;;;;;21.66;42.48;102291.13;5063773;28;45371;-76
2022/01/27 06:27:56;;;;;;;;;50.50;40.25;;;;;21.67;42.60;102292.88;5062986;28;45988;-75
2022/01/27 06:30:21;;;;;;;;;52.75;40.50;;;;;21.67;42.05;102292.88;5043635;28;46149;-75
2022/01/27 06:32:47;;;;;;;;;46.00;39.25;;;;;21.64;42.57;102292.03;5043159;28;45890;-75
2022/01/27 06:35:12;;;;;;;;;47.25;37.50;;;;;21.61;42.79;102303.56;5026806;28;45277;-77
2022/01/27 06:37:39;;;;;;;;;50.00;39.00;;;;;21.57;42.27;102299.19;5059679;28;45509;-75
2022/01/27 06:40:05;;;;;;;;;42.50;36.25;;;;;21.54;42.53;102309.84;5060104;28;46716;-76
2022/01/27 06:42:30;;;;;;;;;41.50;35.00;;;;;21.50;42.50;102312.56;5026973;28;45189;-75
2022/01/27 06:45:02;;;;;;;;;41.00;34.75;;;;;21.47;42.33;102316.13;5060456;28;45224;-74
2022/01/27 06:47:37;;;;;;;;;35.00;32.75;;;;;21.41;42.76;102305.56;5026981;28;45558;-75
2022/01/27 06:50:23;;;;;;;;;39.00;31.25;;;;;21.37;42.79;102307.41;5026613;28;47186;-76
2022/01/27 06:52:51;;;;;;;;;38.00;32.25;;;;;21.33;42.54;102307.44;5064598;28;45437;-74
2022/01/27 06:55:18;;;;;;;;;42.50;34.25;;;;;21.28;43.42;102296.84;5046367;28;45415;-76
2022/01/27 06:57:46;;;;;;;;;36.75;30.50;;;;;21.31;43.62;102307.44;5046270;28;45633;-75
2022/01/27 07:00:12;;;;;;;;;36.25;30.75;;;;;21.26;43.20;102295.94;5063498;28;48144;-78
2022/01/27 07:02:38;;;;;;;;;33.75;29.25;;;;;21.22;43.66;102296.88;5063378;27;45255;-75
2022/01/27 07:05:04;;;;;;;;;38.50;31.00;;;;;21.26;43.80;102308.34;5080028;28;45188;-76
2022/01/27 07:07:29;;;;;;;;;36.75;29.50;;;;;21.24;43.53;102308.38;5045483;28;45354;-76
2022/01/27 07:09:57;;;;;;;;;31.00;27.75;;;;;21.20;43.65;102309.31;5079479;28;47185;-76
2022/01/27 07:12:23;;;;;;;;;34.00;28.75;;;;;21.21;43.65;102319.03;5062334;28;45497;-76
2022/01/27 07:14:55;;;;;;;;;31.50;28.50;;;;;21.18;43.69;102314.59;5045286;28;52366;-76
2022/01/27 07:17:21;;;;;;;;;34.50;29.25;;;;;21.18;43.48;102321.69;5063300;28;45524;-75
2022/01/27 07:19:47;;;;;;;;;30.75;27.25;;;;;21.14;43.84;102315.53;5079298;28;46141;-76
2022/01/27 07:22:12;;;;;;;;;33.50;30.50;;;;;21.16;43.24;102328.81;5079527;28;45385;-76
2022/01/27 07:24:38;;;;;;;;;29.50;27.00;;;;;21.12;43.36;102324.44;5080415;27;45556;-76
2022/01/27 07:27:04;;;;;;;;;35.00;28.75;;;;;21.11;43.34;102322.63;5079582;28;45404;-76
2022/01/27 07:29:29;;;;;;;;;31.25;25.50;;;;;21.11;43.40;102323.53;5079131;28;45448;-76
2022/01/27 07:31:54;;;;;;;;;30.75;27.50;;;;;21.08;43.21;102309.41;5079517;28;45402;-76
2022/01/27 07:34:20;;;;;;;;;29.75;24.25;;;;;21.10;43.41;102320.88;5079484;28;45369;-78
2022/01/27 07:36:46;;;;;;;;;33.50;25.75;;;;;21.09;43.70;102319.13;5078876;28;45432;-76
2022/01/27 07:39:16;;;;;;;;;32.50;24.75;;;;;21.07;43.65;102315.59;5059493;28;45248;-74
2022/01/27 07:41:42;;;;;;;;;29.25;24.75;;;;;21.11;43.98;102314.66;5033039;28;45470;-74
2022/01/27 07:44:07;;;;;;;;;34.50;28.25;;;;;21.08;43.47;102314.72;5077375;28;45545;-74
2022/01/27 07:46:33;;;;;;;;;28.00;25.25;;;;;21.11;43.02;102309.38;5077556;28;45769;-75
2022/01/27 07:48:58;;;;;;;;;25.75;25.75;;;;;21.10;43.43;102313.78;5077229;28;46985;-75
2022/01/27 07:51:24;;;;;;;;;30.00;22.75;;;;;21.09;42.90;102308.50;5079309;27;55583;-75
2022/01/27 07:53:49;;;;;;;;;26.25;23.00;;;;;21.07;42.49;102318.25;5078858;27;45307;-76
2022/01/27 07:56:15;;;;;;;;;27.50;25.25;;;;;21.09;42.99;102313.81;5073077;28;45445;-76
2022/01/27 07:58:43;;;;;;;;;29.75;25.75;;;;;21.09;42.55;102321.78;5056484;28;46042;-74
2022/01/27 08:01:08;;;;;;;;;28.75;21.75;;;;;21.07;42.77;102312.97;5037477;28;45707;-74
2022/01/27 08:03:37;;;;;;;;;23.75;20.25;;;;;21.10;42.73;102318.22;5061077;28;45459;-78
2022/01/27 08:06:05;;;;;;;;;27.00;20.25;;;;;21.13;44.77;102315.56;5049121;28;46149;-74
2022/01/27 08:08:31;;;;;;;;;35.50;25.25;;;;;21.16;43.63;102313.75;5044622;28;48422;-75
2022/01/27 08:10:57;;;;;;;;;27.50;22.75;;;;;21.18;43.41;102317.25;5040480;28;46095;-76
2022/01/27 08:13:22;;;;;;;;;25.25;22.25;;;;;21.21;43.25;102334.97;5055981;28;45232;-76
2022/01/27 08:15:47;;;;;;;;;21.75;21.00;;;;;21.22;42.75;102326.09;5073276;27;45399;-76
2022/01/27 08:18:13;;;;;;;;;26.25;24.25;;;;;21.22;42.75;102322.56;5072593;28;64668;-76
2022/01/27 08:20:40;;;;;;;;;29.25;25.75;;;;;21.24;42.67;102326.94;5067093;28;48952;-77
2022/01/27 08:23:06;;;;;;;;;26.00;22.00;;;;;21.24;42.22;102316.34;5077962;28;45286;-77
2022/01/27 08:25:31;;;;;;;;;25.25;23.50;;;;;21.23;42.44;102324.31;5077772;28;45461;-76
2022/01/27 08:27:59;;;;;;;;;29.25;23.00;;;;;21.22;42.06;102323.44;5094472;27;46879;-78
2022/01/27 08:30:28;;;;;;;;;29.50;24.00;;;;;21.22;42.20;102328.75;5079420;28;45293;-78
2022/01/27 08:33:00;;;;;;;;;25.75;23.25;;;;;21.24;42.00;102332.25;5079343;27;45301;-76
2022/01/27 08:35:26;;;;;;;;;26.00;21.50;;;;;21.22;41.78;102334.06;5076875;28;45310;-76
2022/01/27 08:37:54;;;;;;;;;23.75;20.25;;;;;21.20;41.83;102338.50;5064177;28;46033;-75
2022/01/27 08:40:20;;;;;;;;;22.25;19.00;;;;;21.19;41.54;102339.38;5076479;27;45352;-76
2022/01/27 08:42:45;;;;;;;;;28.25;21.25;;;;;21.21;41.72;102331.44;5073508;28;45341;-76
2022/01/27 08:45:12;;;;;;;;;23.50;20.50;;;;;21.18;41.58;102340.28;5058907;28;45552;-76
2022/01/27 08:47:38;;;;;;;;;25.75;19.75;;;;;21.19;41.54;102336.72;5058410;28;46629;-75
2022/01/27 08:50:04;;;;;;;;;20.75;19.50;;;;;21.17;42.18;102336.75;5057591;28;45449;-75
2022/01/27 08:52:29;;;;;;;;;25.00;19.50;;;;;21.18;41.88;102333.19;5058661;28;45504;-74
2022/01/27 08:54:55;;;;;;;;;24.00;20.75;;;;;21.17;42.13;102333.22;5058077;28;54945;-75
2022/01/27 08:57:20;;;;;;;;;23.00;19.75;;;;;21.19;41.57;102334.06;5060866;28;45410;-76
2022/01/27 08:59:47;;;;;;;;;24.75;22.00;;;;;21.17;41.43;102335.88;5078932;27;45487;-76
2022/01/27 09:02:12;;;;;;;;;20.75;20.25;;;;;21.17;41.51;102322.59;5065564;27;45252;-75
2022/01/27 09:04:39;;;;;;;;;19.00;16.75;;;;;21.17;41.40;102331.44;5067554;28;60976;-75
2022/01/27 09:07:04;;;;;;;;;26.25;20.00;;;;;21.17;41.36;102317.28;5058528;28;46305;-75
2022/01/27 09:09:30;;;;;;;;;20.50;17.50;;;;;21.17;41.38;102315.50;5046036;28;45710;-74
2022/01/27 09:11:58;;;;;;;;;23.75;21.75;;;;;21.17;41.54;102318.16;5067795;28;45365;-75
2022/01/27 09:14:28;;;;;;;;;25.75;18.75;;;;;21.17;41.22;102302.22;5057479;28;45336;-75
2022/01/27 09:16:53;;;;;;;;;22.50;20.25;;;;;21.17;41.08;102304.00;5060351;28;45415;-76
2022/01/27 09:19:19;;;;;;;;;19.50;16.75;;;;;21.18;41.09;102300.44;5043791;28;45295;-76
2022/01/27 09:21:46;;;;;;;;;22.75;18.00;;;;;21.19;40.77;102302.19;5045053;28;45420;-76
2022/01/27 09:24:16;;;;;;;;;24.50;21.00;;;;;21.19;40.71;102304.88;5043935;28;45421;-76
2022/01/27 09:29:14;;;;;;;;;21.50;19.75;;;;;21.20;40.66;102300.44;5060632;28;45489;-76
2022/01/27 09:31:39;;;;;;;;;26.25;20.50;;;;;21.18;40.97;102293.38;5080134;28;45811;-76
2022/01/27 09:34:04;;;;;;;;;25.00;21.25;;;;;21.21;40.50;102299.56;5081660;27;59368;-76
2022/01/27 09:36:30;;;;;;;;;19.25;17.75;;;;;21.19;40.83;102294.25;5079109;28;45463;-74
2022/01/27 09:38:55;;;;;;;;;22.75;19.00;;;;;21.20;41.10;102303.09;5038750;28;56522;-76
2022/01/27 09:41:21;;;;;;;;;22.25;19.75;;;;;21.21;40.53;102305.75;5059915;28;45243;-76
2022/01/27 09:43:48;;;;;;;;;26.00;21.75;;;;;21.21;40.86;102304.88;5074837;27;45250;-75
2022/01/27 09:46:16;;;;;;;;;15.50;12.75;;;;;21.22;40.89;102294.22;5058085;28;47821;-75
2022/01/27 09:48:45;;;;;;;;;20.00;16.00;;;;;21.22;40.99;102302.19;5059706;28;45366;-76
2022/01/27 09:53:45;;;;;;;;;19.50;17.75;;;;;21.23;40.85;102295.09;5079736;28;45433;-76
2022/01/27 09:56:10;;;;;;;;;20.75;18.50;;;;;21.24;40.62;102299.53;5056701;28;46872;-75
2022/01/27 09:58:35;;;;;;;;;19.50;17.75;;;;;21.24;40.71;102291.56;5069934;28;50384;-75
2022/01/27 10:01:01;;;;;;;;;24.50;19.75;;;;;21.24;40.76;102299.53;5076502;28;51599;-75
2022/01/27 10:03:28;;;;;;;;;26.25;19.75;;;;;21.21;40.44;102297.78;5081520;28;45374;-75
2022/01/27 10:06:08;;;;;;;;;19.75;11.75;;;;;21.23;40.52;102298.63;5080990;27;45239;-76
2022/01/27 10:08:34;;;;;;;;;27.50;19.75;;;;;21.21;40.84;102296.91;5060585;28;45542;-76
2022/01/27 10:11:00;;;;;;;;;19.25;16.00;;;;;21.25;41.06;102291.53;5060988;28;45361;-74
2022/01/27 10:13:31;;;;;;;;;23.25;19.50;;;;;21.23;40.98;102290.69;5042794;28;45354;-72
2022/01/27 10:15:56;;;;;;;;;21.00;18.75;;;;;21.24;40.55;102289.78;5059973;28;45531;-70
2022/01/27 10:18:25;;;;;;;;;20.50;17.00;;;;;21.25;40.82;102296.84;5058746;28;45355;-71
2022/01/27 10:20:51;;;;;;;;;22.75;20.00;;;;;21.25;40.83;102296.84;5058339;28;45475;-71
2022/01/27 10:23:20;;;;;;;;;25.50;21.00;;;;;21.27;40.80;102299.50;5072748;28;45521;-71
2022/01/27 10:25:53;;;;;;;;;22.25;20.75;;;;;21.26;41.14;102298.59;5079100;28;45580;-72
2022/01/27 10:28:49;;;;;;;;;24.00;20.75;;;;;21.24;40.99;102289.78;5080138;28;45441;-71
2022/01/27 10:31:23;;;;;;;;;23.25;21.50;;;;;21.26;41.06;102301.25;5050004;28;45149;-71
2022/01/27 10:33:53;;;;;;;;;24.25;23.00;;;;;21.26;40.84;102303.91;5062733;28;45336;-71
2022/01/27 10:36:41;;;;;;;;;21.75;20.25;;;;;21.25;41.20;102302.16;5062404;28;46699;-71
2022/01/27 10:39:08;;;;;;;;;22.00;18.50;;;;;21.26;41.03;102303.91;5063670;28;45307;-71
2022/01/27 10:41:35;;;;;;;;;25.00;20.00;;;;;21.26;41.39;102295.06;5064804;28;45411;-71
2022/01/27 10:44:09;;;;;;;;;19.75;17.50;;;;;21.26;41.01;102290.63;5045298;28;45506;-72
2022/01/27 10:46:38;;;;;;;;;21.75;19.50;;;;;21.27;40.96;102288.88;5054402;28;47695;-71
2022/01/27 10:49:10;;;;;;;;;20.25;18.25;;;;;21.25;41.14;102282.69;5060246;28;45307;-72
2022/01/27 10:51:47;;;;;;;;;22.50;17.25;;;;;21.25;41.12;102280.91;5079778;28;45325;-71
2022/01/27 10:54:25;;;;;;;;;18.75;17.25;;;;;21.25;41.29;102283.56;5048163;28;45461;-72
2022/01/27 10:56:50;;;;;;;;;23.25;19.50;;;;;21.23;40.92;102280.06;5065932;27;46564;-72
2022/01/27 10:59:19;;;;;;;;;18.25;17.75;;;;;21.25;41.18;102280.91;5062523;28;45425;-71
2022/01/27 11:01:46;;;;;;;;;17.75;17.75;;;;;21.24;41.19;102280.94;5054636;27;45315;-72
2022/01/27 11:04:13;;;;;;;;;19.75;18.50;;;;;21.23;41.35;102282.72;5044013;28;45504;-72
2022/01/27 11:06:56;;;;;;;;;22.50;19.25;;;;;21.24;41.32;102287.13;5025809;28;47018;-72
2022/01/27 11:09:22;;;;;;;;;16.75;14.75;;;;;21.24;41.40;102283.59;5050903;28;45374;-72
2022/01/27 11:11:49;;;;;;;;;20.00;16.75;;;;;21.24;41.13;102286.25;5079835;28;45325;-72
2022/01/27 11:14:15;;;;;;;;;25.25;19.25;;;;;21.23;41.19;102289.81;5046643;28;45387;-72
2022/01/27 11:16:43;;;;;;;;;21.00;17.00;;;;;21.23;40.84;102284.50;5063422;28;62488;-72
2022/01/27 11:21:56;;;;;;;;;19.75;17.50;;;;;21.22;41.11;102296.88;5079767;28;45475;-72
2022/01/27 11:24:26;;;;;;;;;19.75;17.25;;;;;21.21;40.92;102295.13;5063895;28;45329;-71
2022/01/27 11:26:59;;;;;;;;;23.75;18.75;;;;;21.21;40.66;102288.94;5059121;28;46299;-74
2022/01/27 11:29:27;;;;;;;;;18.50;17.50;;;;;21.21;40.44;102295.13;5052827;28;45393;-72
2022/01/27 11:32:00;;;;;;;;;19.50;18.00;;;;;21.21;40.79;102278.31;5025746;28;45377;-73
2022/01/27 11:34:46;;;;;;;;;23.75;19.25;;;;;21.20;40.76;102277.44;5040183;28;45681;-74
2022/01/27 11:37:13;;;;;;;;;21.25;18.50;;;;;21.22;40.60;102269.44;5042292;28;45458;-74
2022/01/27 11:39:49;;;;;;;;;23.25;20.25;;;;;21.22;40.49;102275.66;5038916;28;45498;-74
2022/01/27 11:42:41;;;;;;;;;20.00;16.50;;;;;21.16;40.63;102260.66;5070765;28;45246;-74
2022/01/27 11:45:22;;;;;;;;;18.50;16.75;;;;;21.22;40.96;102275.66;5063163;28;45352;-74
2022/01/27 11:48:13;;;;;;;;;22.25;18.75;;;;;21.22;40.79;102262.38;5079544;27;45534;-73
2022/01/27 11:50:56;;;;;;;;;19.50;16.50;;;;;21.16;40.53;102255.34;5074062;27;45338;-75
2022/01/27 11:53:35;;;;;;;;;21.75;17.25;;;;;21.22;40.79;102259.72;5064654;28;45232;-72
2022/01/27 11:56:15;;;;;;;;;17.75;16.50;;;;;21.21;40.72;102247.34;5078759;27;45861;-72